EDLPETMN

Guest
Details From EDLP - Paderborn Lippstadt
To ETMN - Nordholz
Flight Number -
Tags generated
Created
Modified
Stats Distance 129 nm / 240 km
Max Altitude 7,900 ft / 2,408 m
Waypoints 3
Social Downloads 0
Likes 0
Share VATSIM

Download

Looking for another format? Having issues loading an existing format? Contact us
Advertisement - Login to hide

Notes

Basic altitude profile: - Ascent Rate: 2500ft/min - Ascent Speed: 250kts - Cruise Altitude: 20000ft - Cruise Speed: 310kts - Descent Rate: 1500ft/min - Descent Speed: 250kts Options: - Use NATs: yes - Use PACOTS: yes - Use low airways: yes - Use high airways: yes

Route

EDLP DENOL ETMN

ID Type Via Altitude Latitude Longitude Leg Dist Tot Dist Heading (true) Name
O EDLP APT - 0 ft / 0 m 51.61417˚ 8.61634˚ - 0 nm - Paderborn Lippstadt
DENOL FIX - 7,900 ft / 2,408 m 51.98333˚ 8.67278˚ 22 nm 22 nm 5° / 5° -
O ETMN APT - 0 ft / 0 m 53.76767˚ 8.65850˚ 107 nm 129 nm 360° / 360° Nordholz

Altitude Profile

Advertisement - Login to hide

EDLP

Details ICAO EDLP (PAD)
Name Paderborn Lippstadt
Region Germany - Civil
Timezone Europe/Berlin (UTC+2.0)
Stats Elevation 699 ft / 213 m (AMSL)
Location 51.614166° 8.616336°
Runways 1
Magnetic Variation 2.415° E

METAR

EDLP 211150Z 11012G23KT CAVOK 22/07 Q1016

Decode

TAF

TAF TAF EDLP 211100Z 2112/2212 10014KT CAVOK TEMPO 2112/2116 10015G25KT BECMG 2116/2119 11006KT

Decode

Departure Runways

ID Width Length Bearing (true) Bearing (mag) Surface Threshold Offset Overrun Length
06 148 ft / 45 m 7,136 ft / 2,175 m 57.28° 54.86° Asphalt 0 ft / 0 m 1,066 ft / 325 m
24 148 ft / 45 m 7,136 ft / 2,175 m 237.30° 234.88° Asphalt 0 ft / 0 m 397 ft / 121 m

ETMN

Details ICAO ETMN
Name Nordholz
Region Germany - Military
Timezone Europe/Berlin (UTC+2.0)
Stats Elevation 74 ft / 23 m (AMSL)
Location 53.767665° 8.658501°
Runways 1
Magnetic Variation 2.420° E

METAR

ETMN 211120Z 10016KT 9999 FEW300 22/04 Q1020 BLU+

Decode

TAF

Not found

Destination Runways

ID Width Length Bearing (true) Bearing (mag) Surface Threshold Offset Overrun Length
08 148 ft / 45 m 7,979 ft / 2,432 m 78.29° 75.87° Concrete 0 ft / 0 m 902 ft / 275 m
26 148 ft / 45 m 7,979 ft / 2,432 m 258.32° 255.90° Concrete 0 ft / 0 m 902 ft / 275 m

Approach Navaids

Runway Type Ident Frequency Range Bearing (true) Bearing (mag) Slope Elevation
26 Localiser NDO 111.90 MHz 18 nm / 33 km 258.37° 255.95° - 66 ft / 20 m (AMSL)
26 Glidescope NDO 111.90 MHz 10 nm / 19 km 258.30° 255.88° 3.00° 74 ft / 23 m (AMSL)